Time;durP1;ratioP1;P1;durP2;ratioP2;P2;SDS_P1;SDS_P2;PMS_P1;PMS_P2;Temp;Humidity;BMP_temperature;BMP_pressure;BME280_temperature;BME280_humidity;BME280_pressure;Samples;Min_cycle;Max_cycle;Signal;HPM_P1;HPM_P2
2020/12/27 00:00:55;;;;;;;;;16.10;11.70;;;;;0.23;86.99;100437.24;506833;107;414504;-53
2020/12/27 00:01:59;;;;;;;;;12.20;9.50;;;;;0.20;87.48;100437.33;490436;109;374654;-52
2020/12/27 00:03:03;;;;;;;;;14.80;12.60;;;;;0.20;87.48;100437.33;493827;108;379207;-55
2020/12/27 00:04:05;;;;;;;;;13.00;10.89;;;;;0.21;87.04;100433.88;496987;108;377220;-53
2020/12/27 00:05:07;;;;;;;;;14.00;11.78;;;;;0.19;87.25;100433.07;489145;111;380741;-55
2020/12/27 00:06:09;;;;;;;;;10.20;8.50;;;;;0.14;87.52;100430.67;494432;109;373535;-53
2020/12/27 00:07:14;;;;;;;;;13.11;9.56;;;;;0.14;87.52;100430.67;496576;109;371464;-53
2020/12/27 00:08:16;;;;;;;;;17.50;14.40;;;;;0.19;87.41;100428.75;495229;109;381440;-53
2020/12/27 00:09:19;;;;;;;;;13.00;12.44;;;;;0.15;87.37;100426.36;496555;109;379594;-53
2020/12/27 00:10:22;;;;;;;;;14.90;13.60;;;;;0.15;87.37;100426.36;492868;109;380581;-54
2020/12/27 00:11:24;;;;;;;;;14.78;11.00;;;;;0.15;87.33;100426.36;497219;108;379005;-55
2020/12/27 00:12:26;;;;;;;;;12.70;10.80;;;;;0.21;86.91;100426.14;498323;108;380023;-52
2020/12/27 00:13:28;;;;;;;;;15.67;13.44;;;;;0.18;87.10;100429.66;499686;108;379552;-54
2020/12/27 00:14:29;;;;;;;;;10.78;8.44;;;;;0.18;87.10;100429.66;499513;108;375809;-53
2020/12/27 00:15:31;;;;;;;;;15.11;12.00;;;;;0.14;87.27;100430.67;500684;108;380434;-52
2020/12/27 00:16:33;;;;;;;;;15.30;10.50;;;;;0.13;87.28;100431.57;499202;108;377144;-53
2020/12/27 00:17:35;;;;;;;;;11.67;8.33;;;;;0.16;87.17;100434.03;499899;108;373556;-51
2020/12/27 00:18:37;;;;;;;;;8.33;7.89;;;;;0.16;87.17;100434.03;497275;108;371497;-54
2020/12/27 00:19:39;;;;;;;;;8.22;8.22;;;;;0.08;87.64;100428.34;499277;108;374058;-54
2020/12/27 00:20:42;;;;;;;;;10.45;8.55;;;;;0.11;87.61;100430.80;496311;108;376751;-52
2020/12/27 00:21:43;;;;;;;;;15.22;12.78;;;;;0.09;87.93;100442.06;498013;108;381988;-53
2020/12/27 00:22:45;;;;;;;;;5.56;2.78;;;;;0.09;87.93;100442.06;495324;109;374319;-53
2020/12/27 00:23:47;;;;;;;;;10.56;8.22;;;;;0.09;88.28;100437.75;496622;109;376427;-53
2020/12/27 00:24:49;;;;;;;;;16.90;14.20;;;;;0.13;88.26;100439.31;500937;108;380307;-54
2020/12/27 00:25:52;;;;;;;;;15.40;12.90;;;;;0.11;88.30;100441.11;498503;108;376295;-52
2020/12/27 00:26:54;;;;;;;;;15.56;12.78;;;;;0.13;88.40;100444.47;499496;108;378874;-55
2020/12/27 00:27:56;;;;;;;;;19.33;14.67;;;;;0.13;88.40;100444.47;498353;108;377224;-52
2020/12/27 00:28:58;;;;;;;;;16.44;12.67;;;;;0.16;88.30;100448.66;495644;109;382233;-52
2020/12/27 00:29:59;;;;;;;;;15.11;12.56;;;;;0.18;88.14;100445.12;499058;108;378757;-50
2020/12/27 00:31:01;;;;;;;;;18.00;13.22;;;;;0.22;87.98;100444.14;499212;108;381899;-56
2020/12/27 00:32:03;;;;;;;;;16.89;14.44;;;;;0.22;87.98;100444.14;498982;108;381293;-52
2020/12/27 00:33:07;;;;;;;;;18.40;14.70;;;;;0.23;87.91;100440.66;494263;108;380197;-51
2020/12/27 00:34:09;;;;;;;;;9.11;9.11;;;;;0.23;87.91;100440.66;497383;108;377610;-52
2020/12/27 00:35:11;;;;;;;;;15.00;11.00;;;;;0.27;87.97;100442.22;494942;108;378812;-52
2020/12/27 00:36:18;;;;;;;;;13.80;12.40;;;;;0.26;87.99;100444.86;495164;109;378738;-52
2020/12/27 00:37:20;;;;;;;;;15.60;13.80;;;;;0.29;87.91;100437.00;498139;108;381076;-54
2020/12/27 00:38:23;;;;;;;;;14.67;11.67;;;;;0.31;87.71;100440.36;499359;108;376876;-54
2020/12/27 00:39:25;;;;;;;;;14.50;11.80;;;;;0.25;87.88;100446.59;491080;109;379873;-54
2020/12/27 00:40:27;;;;;;;;;14.64;13.27;;;;;0.22;87.96;100446.72;499839;108;380725;-53
2020/12/27 00:41:29;;;;;;;;;18.22;12.67;;;;;0.22;87.96;100446.72;497495;109;380889;-54
2020/12/27 00:42:31;;;;;;;;;18.67;13.22;;;;;0.28;88.21;100448.22;499042;108;381193;-54
2020/12/27 00:43:33;;;;;;;;;18.67;13.56;;;;;0.33;87.93;100456.61;499859;108;381891;-54
2020/12/27 00:44:34;;;;;;;;;10.89;8.56;;;;;0.37;87.56;100454.75;498595;108;370433;-53
2020/12/27 00:45:36;;;;;;;;;13.33;12.11;;;;;0.32;87.79;100449.77;496502;109;378394;-55
2020/12/27 00:46:40;;;;;;;;;13.30;12.50;;;;;0.37;87.49;100453.01;487643;111;380559;-54
2020/12/27 00:47:41;;;;;;;;;15.67;14.22;;;;;0.37;87.49;100453.01;485315;111;374162;-55
2020/12/27 00:48:43;;;;;;;;;15.89;14.22;;;;;0.36;87.50;100453.91;484071;112;381168;-53
2020/12/27 00:49:46;;;;;;;;;16.20;11.70;;;;;0.40;87.31;100452.92;488172;111;378502;-53
2020/12/27 00:50:49;;;;;;;;;15.70;12.00;;;;;0.41;87.06;100449.44;485805;112;380316;-54
2020/12/27 00:51:51;;;;;;;;;14.60;12.90;;;;;0.41;87.06;100449.44;485816;112;379427;-55
2020/12/27 00:52:55;;;;;;;;;11.30;8.60;;;;;0.48;86.96;100448.29;475542;113;376496;-52
2020/12/27 00:53:56;;;;;;;;;11.80;11.60;;;;;0.54;86.73;100447.20;483298;112;379441;-52
2020/12/27 00:54:58;;;;;;;;;14.44;12.89;;;;;0.50;86.76;100443.91;477363;113;379489;-51
2020/12/27 00:56:00;;;;;;;;;11.00;11.00;;;;;0.44;86.74;100451.89;475465;113;377345;-54
2020/12/27 00:57:02;;;;;;;;;14.44;10.44;;;;;0.48;86.89;100445.71;477779;113;377919;-52
2020/12/27 00:58:04;;;;;;;;;15.78;12.22;;;;;0.49;86.82;100449.97;482179;112;377683;-53
2020/12/27 00:59:05;;;;;;;;;15.89;11.33;;;;;0.56;86.45;100453.14;477426;113;379649;-53
2020/12/27 01:00:09;;;;;;;;;14.91;11.45;;;;;0.57;86.52;100445.34;476624;113;378535;-54
2020/12/27 01:01:13;;;;;;;;;12.56;12.11;;;;;0.55;86.48;100447.14;478175;113;379033;-54
2020/12/27 01:02:14;;;;;;;;;13.40;12.30;;;;;0.55;86.48;100447.14;472255;113;377462;-53
2020/12/27 01:03:16;;;;;;;;;15.11;12.89;;;;;0.60;86.39;100445.24;475936;113;369950;-54
2020/12/27 01:04:18;;;;;;;;;15.22;9.78;;;;;0.60;86.46;100444.37;474579;114;376505;-53
2020/12/27 01:05:20;;;;;;;;;11.56;8.22;;;;;0.66;86.47;100441.57;474444;114;375385;-52
2020/12/27 01:06:24;;;;;;;;;17.90;12.90;;;;;0.61;86.03;100446.08;472965;113;381732;-54
2020/12/27 01:07:26;;;;;;;;;14.30;10.20;;;;;0.62;86.24;100447.77;476103;113;379862;-54
2020/12/27 01:08:28;;;;;;;;;17.33;12.00;;;;;0.65;86.47;100447.64;477639;113;379024;-54
2020/12/27 01:09:30;;;;;;;;;18.78;14.11;;;;;0.65;86.47;100447.64;477685;113;377887;-53
2020/12/27 01:10:32;;;;;;;;;15.30;10.50;;;;;0.65;86.25;100445.05;477430;113;372090;-54
2020/12/27 01:11:34;;;;;;;;;15.44;9.78;;;;;0.62;86.14;100455.50;477418;112;376122;-55
2020/12/27 01:12:36;;;;;;;;;14.33;12.67;;;;;0.62;86.14;100455.50;486522;112;380672;-54
2020/12/27 01:13:38;;;;;;;;;28.22;22.33;;;;;0.58;86.36;100448.76;484276;112;382731;-53
2020/12/27 01:14:40;;;;;;;;;19.67;16.44;;;;;0.66;86.80;100448.48;481442;112;382389;-53
2020/12/27 01:15:42;;;;;;;;;17.56;14.56;;;;;0.55;86.65;100452.30;485616;112;381696;-54
2020/12/27 01:16:50;;;;;;;;;13.30;11.80;;;;;0.69;86.33;100443.19;485833;112;380741;-52
2020/12/27 01:17:51;;;;;;;;;16.90;14.00;;;;;0.69;86.33;100443.19;484805;112;375915;-54
2020/12/27 01:18:54;;;;;;;;;17.90;13.00;;;;;0.71;85.97;100449.12;490138;110;371563;-54
2020/12/27 01:19:55;;;;;;;;;16.22;13.00;;;;;0.69;85.92;100440.61;492522;110;379676;-54
2020/12/27 01:20:57;;;;;;;;;15.78;11.78;;;;;0.75;85.98;100436.03;488594;110;380572;-52
2020/12/27 01:21:59;;;;;;;;;16.11;13.67;;;;;0.75;85.98;100436.03;492105;110;381162;-53
2020/12/27 01:23:02;;;;;;;;;18.67;15.33;;;;;0.82;85.39;100440.06;492560;110;381180;-53
2020/12/27 01:24:04;;;;;;;;;17.80;13.70;;;;;0.82;85.39;100440.06;490629;110;370589;-53
2020/12/27 01:25:09;;;;;;;;;12.33;11.67;;;;;0.87;85.60;100438.13;492499;110;377928;-53
2020/12/27 01:26:13;;;;;;;;;14.60;13.70;;;;;0.85;85.47;100445.09;489335;110;379149;-53
2020/12/27 01:27:15;;;;;;;;;15.11;11.89;;;;;0.85;85.47;100445.09;492524;110;376598;-53
2020/12/27 01:28:17;;;;;;;;;16.00;13.11;;;;;0.83;85.27;100446.06;492080;110;375967;-53
2020/12/27 01:29:19;;;;;;;;;18.78;16.33;;;;;0.83;85.27;100446.06;492495;110;382114;-51
2020/12/27 01:30:22;;;;;;;;;25.20;17.60;;;;;0.83;85.61;100453.81;492124;110;382203;-54
2020/12/27 01:31:24;;;;;;;;;14.56;10.56;;;;;0.87;85.70;100456.20;490353;110;375819;-53
2020/12/27 01:32:25;;;;;;;;;17.22;13.33;;;;;0.89;85.56;100458.72;487432;111;379773;-56
2020/12/27 01:33:27;;;;;;;;;18.56;15.33;;;;;0.82;85.83;100460.72;489426;110;381765;-54
2020/12/27 01:34:29;;;;;;;;;22.20;16.50;;;;;0.87;85.52;100463.95;489125;110;380210;-52
2020/12/27 01:35:31;;;;;;;;;18.11;14.44;;;;;0.87;85.52;100463.95;490789;110;380742;-54
2020/12/27 01:36:34;;;;;;;;;21.80;14.10;;;;;0.82;85.78;100463.30;492443;110;380612;-51
2020/12/27 01:37:36;;;;;;;;;25.00;19.78;;;;;0.81;85.77;100463.36;492219;110;382131;-52
2020/12/27 01:38:37;;;;;;;;;23.56;16.22;;;;;0.83;85.82;100469.30;490269;110;379983;-53
2020/12/27 01:39:39;;;;;;;;;9.44;6.00;;;;;0.83;85.82;100469.30;492874;110;375445;-54
2020/12/27 01:40:42;;;;;;;;;16.20;13.80;;;;;0.93;85.77;100467.17;492150;110;378379;-54
2020/12/27 01:41:43;;;;;;;;;12.33;10.22;;;;;0.89;85.46;100467.30;490588;110;376348;-52
2020/12/27 01:42:55;;;;;;;;;4.11;1.00;;;;;0.99;85.30;100472.09;492230;110;371683;-54
2020/12/27 01:44:10;;;;;;;;;16.10;14.10;;;;;0.92;85.48;100474.09;490694;110;380736;-52
2020/12/27 01:45:12;;;;;;;;;16.10;15.00;;;;;0.82;85.55;100471.05;491290;110;382071;-55
2020/12/27 01:46:15;;;;;;;;;18.80;13.30;;;;;0.82;85.55;100471.05;492354;110;379730;-52
2020/12/27 01:47:20;;;;;;;;;17.89;13.00;;;;;0.81;85.65;100484.02;492536;110;380436;-51
2020/12/27 01:48:22;;;;;;;;;15.90;11.60;;;;;0.86;85.36;100476.92;490428;110;377475;-53
2020/12/27 01:49:24;;;;;;;;;18.20;14.60;;;;;0.82;85.50;100481.37;491879;110;380257;-53
2020/12/27 01:50:28;;;;;;;;;19.80;12.50;;;;;0.88;85.39;100481.12;485299;111;379769;-52
2020/12/27 01:51:30;;;;;;;;;14.44;11.22;;;;;0.89;85.23;100481.95;492027;110;379506;-53
2020/12/27 01:52:31;;;;;;;;;15.11;12.11;;;;;0.91;84.85;100480.16;492123;110;377098;-53
2020/12/27 01:53:33;;;;;;;;;16.22;12.67;;;;;0.86;85.25;100485.51;492111;110;378869;-53
2020/12/27 01:54:35;;;;;;;;;17.11;14.44;;;;;0.86;85.25;100485.51;490890;110;381000;-51
2020/12/27 01:55:37;;;;;;;;;17.80;15.10;;;;;0.83;85.27;100464.98;492646;110;372320;-55
2020/12/27 01:56:43;;;;;;;;;18.40;15.60;;;;;0.95;85.04;100486.86;492181;110;380244;-53
2020/12/27 01:57:54;;;;;;;;;15.10;11.40;;;;;0.99;84.84;100483.25;487217;110;378486;-52
2020/12/27 01:59:02;;;;;;;;;11.00;6.20;;;;;0.99;85.32;100485.84;486236;110;375386;-50
2020/12/27 02:00:04;;;;;;;;;17.90;14.20;;;;;1.02;84.67;100488.32;492533;109;382159;-52
2020/12/27 02:01:06;;;;;;;;;15.20;13.90;;;;;1.03;84.49;100481.41;492224;110;379091;-55
2020/12/27 02:02:08;;;;;;;;;18.56;15.00;;;;;0.98;84.65;100481.58;495011;108;382239;-52
2020/12/27 02:03:10;;;;;;;;;12.67;12.33;;;;;0.97;84.85;100491.97;497779;108;380586;-53
2020/12/27 02:04:14;;;;;;;;;13.20;11.50;;;;;0.97;84.85;100491.97;492454;109;378602;-53
2020/12/27 02:05:16;;;;;;;;;14.78;11.22;;;;;0.97;84.78;100487.64;498189;108;378382;-53
2020/12/27 02:06:20;;;;;;;;;14.10;9.50;;;;;0.97;84.78;100487.64;490847;110;375684;-54
2020/12/27 02:07:25;;;;;;;;;16.50;14.40;;;;;1.00;84.51;100491.84;492859;109;380844;-53
2020/12/27 02:08:27;;;;;;;;;16.40;12.80;;;;;1.05;84.93;100495.94;496929;108;379157;-52
2020/12/27 02:09:30;;;;;;;;;8.56;7.89;;;;;1.05;84.93;100495.94;498434;108;375148;-53
2020/12/27 02:10:32;;;;;;;;;15.64;12.73;;;;;1.04;84.67;100496.84;495979;108;379178;-53
2020/12/27 02:11:34;;;;;;;;;12.67;12.67;;;;;1.06;84.68;100504.53;496689;108;378084;-54
2020/12/27 02:12:36;;;;;;;;;16.56;12.00;;;;;1.11;84.50;100500.84;495578;108;377450;-50
2020/12/27 02:13:49;;;;;;;;;16.00;13.89;;;;;1.11;84.50;100500.84;498121;108;378804;-52
2020/12/27 02:14:52;;;;;;;;;16.10;12.60;;;;;1.11;84.60;100503.43;495535;108;370473;-53
2020/12/27 02:15:54;;;;;;;;;15.70;12.50;;;;;1.07;84.40;100504.46;497479;108;375253;-52
2020/12/27 02:16:56;;;;;;;;;17.80;16.40;;;;;1.12;84.52;100502.53;491383;109;371612;-52
2020/12/27 02:17:58;;;;;;;;;20.22;12.22;;;;;1.12;84.24;100504.27;495195;108;380060;-53
2020/12/27 02:19:01;;;;;;;;;19.67;15.67;;;;;1.10;84.16;100501.75;498534;108;379083;-51
2020/12/27 02:20:04;;;;;;;;;23.20;16.60;;;;;1.14;84.06;100513.63;498074;108;382558;-52
2020/12/27 02:21:07;;;;;;;;;18.00;16.20;;;;;1.10;84.30;100513.83;495364;108;379267;-52
2020/12/27 02:22:09;;;;;;;;;13.50;11.50;;;;;1.10;84.30;100513.83;495949;108;374720;-52
2020/12/27 02:23:14;;;;;;;;;21.00;14.56;;;;;1.13;84.01;100514.54;498410;108;380625;-53
2020/12/27 02:24:16;;;;;;;;;21.00;16.50;;;;;1.14;84.08;100507.63;497506;108;382645;-55
2020/12/27 02:25:18;;;;;;;;;16.89;16.33;;;;;1.24;83.88;100515.86;495754;108;381608;-52
2020/12/27 02:26:21;;;;;;;;;18.00;15.90;;;;;1.24;83.88;100515.86;497276;108;381890;-54
2020/12/27 02:27:23;;;;;;;;;20.89;17.11;;;;;1.23;83.81;100512.44;498272;108;381174;-52
2020/12/27 02:28:26;;;;;;;;;18.60;14.70;;;;;1.23;83.81;100512.44;490603;110;381050;-53
2020/12/27 02:29:28;;;;;;;;;25.00;16.80;;;;;1.27;84.06;100516.58;498689;108;383456;-51
2020/12/27 02:30:32;;;;;;;;;19.20;13.90;;;;;1.27;83.78;100520.90;497336;108;379518;-52
2020/12/27 02:31:34;;;;;;;;;25.00;19.80;;;;;1.27;83.78;100520.90;491959;109;377843;-53
2020/12/27 02:32:36;;;;;;;;;19.11;17.00;;;;;1.28;83.63;100520.84;496228;108;375977;-54
2020/12/27 02:33:37;;;;;;;;;16.11;13.78;;;;;1.26;83.69;100514.05;495575;108;375516;-53
2020/12/27 02:34:41;;;;;;;;;20.60;14.70;;;;;1.19;83.49;100513.44;493419;109;380091;-51
2020/12/27 02:35:43;;;;;;;;;20.44;16.56;;;;;1.22;83.80;100513.34;493786;109;379332;-52
2020/12/27 02:36:45;;;;;;;;;19.67;16.67;;;;;1.20;84.16;100508.24;494806;109;380634;-52
2020/12/27 02:37:48;;;;;;;;;20.22;15.67;;;;;1.20;84.16;100508.24;497570;108;368124;-53
2020/12/27 02:38:51;;;;;;;;;14.50;14.20;;;;;1.30;84.15;100516.44;494833;108;378320;-53
2020/12/27 02:39:54;;;;;;;;;16.33;12.56;;;;;1.30;84.15;100516.44;498535;108;377378;-52
2020/12/27 02:40:56;;;;;;;;;13.50;9.40;;;;;1.32;83.94;100516.38;493909;109;376571;-55
2020/12/27 02:41:58;;;;;;;;;15.33;12.78;;;;;1.29;83.63;100525.09;494276;109;374663;-52
2020/12/27 02:43:00;;;;;;;;;16.00;14.11;;;;;1.31;83.53;100514.70;495111;109;370525;-53
2020/12/27 02:44:01;;;;;;;;;15.44;12.44;;;;;1.31;83.53;100514.70;497622;108;374659;-52
2020/12/27 02:46:22;;;;;;;;;20.20;13.60;;;;;1.33;83.57;100518.05;493614;108;375791;-54
2020/12/27 02:47:24;;;;;;;;;14.30;11.90;;;;;1.33;83.46;100520.64;497136;108;374841;-54
2020/12/27 02:48:25;;;;;;;;;21.00;16.78;;;;;1.28;83.75;100525.16;497853;108;379948;-55
2020/12/27 02:49:27;;;;;;;;;12.67;11.11;;;;;1.28;83.75;100525.16;498396;108;375537;-54
2020/12/27 02:50:29;;;;;;;;;13.78;11.00;;;;;1.29;83.53;100519.93;491205;109;366990;-52
2020/12/27 02:51:31;;;;;;;;;14.33;11.22;;;;;1.27;83.40;100526.91;495925;108;374955;-53
2020/12/27 02:52:32;;;;;;;;;11.67;10.89;;;;;1.31;83.48;100530.20;492913;109;373890;-54
2020/12/27 02:53:34;;;;;;;;;13.89;11.22;;;;;1.30;83.39;100539.70;498864;108;375335;-55
2020/12/27 02:54:36;;;;;;;;;14.33;9.89;;;;;1.18;83.31;100537.59;499614;108;366784;-55
2020/12/27 02:55:38;;;;;;;;;13.67;11.89;;;;;1.24;83.45;100537.37;498491;108;375904;-53
2020/12/27 02:56:40;;;;;;;;;13.60;9.70;;;;;1.23;83.35;100538.27;491209;109;375092;-53
2020/12/27 02:57:42;;;;;;;;;13.33;11.89;;;;;1.23;83.35;100538.27;498985;108;375018;-52
2020/12/27 02:58:44;;;;;;;;;13.22;10.78;;;;;1.26;83.20;100542.47;498353;108;373270;-54
2020/12/27 02:59:47;;;;;;;;;13.27;12.18;;;;;1.26;82.99;100547.64;497356;108;367542;-53
2020/12/27 03:00:50;;;;;;;;;10.30;8.70;;;;;1.23;83.04;100543.44;498365;108;368452;-53
2020/12/27 03:01:52;;;;;;;;;15.67;11.33;;;;;1.26;82.88;100538.14;494311;109;368067;-53
2020/12/27 03:02:54;;;;;;;;;13.00;10.56;;;;;1.26;82.74;100538.14;495170;109;374935;-55
2020/12/27 03:03:56;;;;;;;;;13.67;12.11;;;;;1.26;82.74;100538.14;491787;109;373964;-55
2020/12/27 03:04:59;;;;;;;;;13.60;11.30;;;;;1.31;83.21;100538.79;483360;112;368436;-52
2020/12/27 03:06:01;;;;;;;;;13.78;10.00;;;;;1.31;83.21;100536.20;488678;110;373038;-54
2020/12/27 03:07:03;;;;;;;;;9.11;7.78;;;;;1.27;83.28;100544.99;483512;110;370512;-53
2020/12/27 03:08:05;;;;;;;;;12.44;8.67;;;;;1.19;83.01;100544.44;488552;110;366567;-52
2020/12/27 03:09:06;;;;;;;;;11.00;9.00;;;;;1.19;83.01;100544.44;485353;110;375374;-54
2020/12/27 03:10:10;;;;;;;;;17.18;12.36;;;;;1.27;83.27;100544.99;488460;110;370119;-52
2020/12/27 03:11:12;;;;;;;;;8.50;6.50;;;;;1.18;83.21;100543.60;489339;110;372775;-54
2020/12/27 03:12:14;;;;;;;;;11.33;7.89;;;;;1.20;83.05;100551.28;485235;112;371843;-52
2020/12/27 03:13:15;;;;;;;;;20.89;15.89;;;;;1.23;83.03;100561.52;487060;110;381801;-55
2020/12/27 03:14:17;;;;;;;;;13.78;11.78;;;;;1.19;83.39;100555.61;488665;110;369323;-51
2020/12/27 03:15:19;;;;;;;;;12.56;11.11;;;;;1.23;83.45;100558.10;488599;110;367667;-51
2020/12/27 03:16:22;;;;;;;;;19.00;12.40;;;;;1.26;83.17;100565.73;488216;110;378069;-55
2020/12/27 03:17:24;;;;;;;;;15.90;11.40;;;;;1.26;83.19;100563.14;484996;112;377641;-53
2020/12/27 03:18:28;;;;;;;;;13.50;10.60;;;;;1.26;83.35;100565.73;488551;110;377290;-51
2020/12/27 03:19:29;;;;;;;;;14.40;11.60;;;;;1.28;83.18;100566.50;483552;112;375048;-52
2020/12/27 03:20:33;;;;;;;;;17.80;14.10;;;;;1.27;82.99;100567.41;478379;113;376543;-53
2020/12/27 03:21:35;;;;;;;;;13.00;9.78;;;;;1.25;83.13;100564.88;481024;112;371083;-52
2020/12/27 03:22:36;;;;;;;;;15.56;12.56;;;;;1.25;82.92;100566.63;477691;112;375933;-52
2020/12/27 03:23:38;;;;;;;;;1.44;0.33;;;;;1.22;83.21;100565.02;475252;111;369277;-53
2020/12/27 03:24:40;;;;;;;;;13.22;10.33;;;;;1.25;83.08;100564.88;488964;110;373604;-51
2020/12/27 03:25:42;;;;;;;;;14.44;8.67;;;;;1.25;83.08;100564.88;489198;110;372270;-53
2020/12/27 03:26:44;;;;;;;;;14.00;9.10;;;;;1.27;83.01;100565.66;488887;110;372857;-53
2020/12/27 03:27:46;;;;;;;;;15.78;11.89;;;;;1.18;82.96;100555.67;486336;110;365678;-52
2020/12/27 03:28:49;;;;;;;;;13.00;10.40;;;;;1.28;83.21;100556.17;487967;110;372249;-53
2020/12/27 03:29:51;;;;;;;;;17.60;14.40;;;;;1.27;82.99;100559.66;488545;110;372925;-53
2020/12/27 03:30:53;;;;;;;;;17.00;14.00;;;;;1.32;83.06;100560.30;489894;110;377113;-53
2020/12/27 03:31:54;;;;;;;;;17.44;12.78;;;;;1.32;83.14;100561.14;488247;111;376314;-54
2020/12/27 03:32:56;;;;;;;;;8.78;7.11;;;;;1.25;82.99;100559.72;487999;110;372679;-54
2020/12/27 03:33:58;;;;;;;;;17.44;11.78;;;;;1.25;83.07;100569.21;489699;110;377302;-51
2020/12/27 03:35:03;;;;;;;;;13.90;11.20;;;;;1.26;83.07;100574.31;491847;110;365562;-51
2020/12/27 03:36:05;;;;;;;;;10.80;5.40;;;;;1.31;82.93;100574.97;489023;111;370592;-54
2020/12/27 03:37:07;;;;;;;;;15.44;14.00;;;;;1.32;82.98;100576.64;490227;110;370417;-53
2020/12/27 03:38:08;;;;;;;;;19.00;12.56;;;;;1.32;82.98;100576.64;485854;110;374240;-52
2020/12/27 03:39:10;;;;;;;;;15.44;12.22;;;;;1.31;82.84;100577.55;487104;110;376183;-52
2020/12/27 03:40:14;;;;;;;;;15.80;13.30;;;;;1.24;83.21;100581.29;485780;111;375893;-54
2020/12/27 03:41:15;;;;;;;;;16.00;10.56;;;;;1.23;83.14;100583.94;485753;111;365548;-54
2020/12/27 03:42:17;;;;;;;;;18.56;14.44;;;;;1.19;83.41;100578.86;485002;112;375116;-55
2020/12/27 03:43:19;;;;;;;;;13.33;10.00;;;;;1.23;83.29;100582.20;490168;110;372123;-49
2020/12/27 03:44:21;;;;;;;;;10.11;7.56;;;;;1.23;83.29;100582.20;484886;112;364034;-52
2020/12/27 03:45:23;;;;;;;;;18.11;14.11;;;;;1.30;83.20;100590.53;488264;111;376358;-53
2020/12/27 03:46:26;;;;;;;;;14.20;11.80;;;;;1.14;83.50;100588.55;489233;109;373351;-53
2020/12/27 03:47:28;;;;;;;;;14.00;14.00;;;;;1.14;83.50;100588.55;492286;110;373370;-56
2020/12/27 03:48:30;;;;;;;;;13.89;11.67;;;;;1.16;83.68;100598.81;493370;108;373615;-53
2020/12/27 03:49:32;;;;;;;;;5.44;4.89;;;;;1.24;83.47;100595.95;498426;108;367196;-51
2020/12/27 03:50:35;;;;;;;;;15.80;12.10;;;;;1.24;83.47;100595.95;497933;108;368246;-54
2020/12/27 03:51:37;;;;;;;;;12.89;11.44;;;;;1.20;83.29;100596.08;498261;108;363892;-52
2020/12/27 03:52:39;;;;;;;;;12.89;11.89;;;;;1.26;83.23;100588.98;498383;108;374667;-54
2020/12/27 03:53:41;;;;;;;;;13.33;12.11;;;;;1.31;83.14;100595.64;496439;108;374619;-54
2020/12/27 03:54:43;;;;;;;;;16.22;14.22;;;;;1.31;83.14;100595.64;493774;108;366560;-51
2020/12/27 03:55:44;;;;;;;;;11.22;11.11;;;;;1.20;83.35;100596.08;496497;108;372399;-52
2020/12/27 03:56:47;;;;;;;;;14.20;12.10;;;;;1.20;83.35;100596.08;496819;108;376204;-52
2020/12/27 03:57:49;;;;;;;;;20.56;13.44;;;;;1.25;83.23;100607.97;495957;108;379849;-52
2020/12/27 03:58:50;;;;;;;;;9.44;8.22;;;;;1.23;83.41;100605.45;492066;109;370456;-52
2020/12/27 03:59:52;;;;;;;;;18.22;12.89;;;;;1.24;83.53;100599.37;500120;108;376350;-50
2020/12/27 04:00:54;;;;;;;;;7.56;6.67;;;;;1.30;83.54;100601.70;492645;109;373701;-54
2020/12/27 04:01:56;;;;;;;;;14.89;12.89;;;;;1.35;83.40;100609.27;498756;108;375103;-54
2020/12/27 04:02:58;;;;;;;;;18.56;14.44;;;;;1.33;83.24;100618.83;499237;108;379683;-54
2020/12/27 04:04:00;;;;;;;;;15.30;13.00;;;;;1.22;83.46;100608.93;496340;107;376885;-52
2020/12/27 04:05:02;;;;;;;;;14.22;12.89;;;;;1.20;83.79;100610.70;495436;109;375201;-53
2020/12/27 04:06:04;;;;;;;;;12.10;10.30;;;;;1.20;83.79;100610.70;498760;108;365625;-52
2020/12/27 04:07:06;;;;;;;;;10.89;6.56;;;;;1.21;83.78;100610.67;498601;108;369225;-55
2020/12/27 04:08:07;;;;;;;;;11.00;10.67;;;;;1.21;83.78;100610.67;498189;108;371717;-51
2020/12/27 04:09:09;;;;;;;;;11.89;9.44;;;;;1.29;83.21;100605.20;497335;108;371884;-52
2020/12/27 04:10:12;;;;;;;;;19.50;15.20;;;;;1.29;83.21;100605.20;491086;108;371960;-52
2020/12/27 04:11:14;;;;;;;;;14.67;11.56;;;;;1.33;83.49;100609.33;492338;109;374763;-53
2020/12/27 04:12:15;;;;;;;;;4.67;4.67;;;;;1.30;83.49;100611.20;497278;108;363842;-52
2020/12/27 04:13:17;;;;;;;;;14.67;12.33;;;;;1.31;83.48;100613.72;496873;108;376223;-55
2020/12/27 04:14:19;;;;;;;;;12.22;11.44;;;;;1.31;83.50;100615.47;498645;108;369200;-53
2020/12/27 04:15:21;;;;;;;;;13.78;12.44;;;;;1.32;83.30;100609.39;498535;108;375187;-53
2020/12/27 04:16:23;;;;;;;;;13.70;11.50;;;;;1.32;83.30;100609.39;499492;108;366584;-53
2020/12/27 04:17:25;;;;;;;;;11.44;11.44;;;;;1.33;83.56;100621.41;498966;108;373266;-52
2020/12/27 04:18:26;;;;;;;;;14.89;12.78;;;;;1.33;83.96;100630.00;499788;108;369991;-52
2020/12/27 04:19:28;;;;;;;;;16.44;13.33;;;;;1.32;83.84;100624.89;488343;111;374665;-54
2020/12/27 04:20:32;;;;;;;;;16.90;12.20;;;;;1.40;83.66;100628.88;495567;108;376756;-53
2020/12/27 04:21:34;;;;;;;;;15.56;13.33;;;;;1.40;83.66;100628.88;495198;109;375566;-52
2020/12/27 04:22:36;;;;;;;;;22.44;17.44;;;;;1.43;83.28;100635.66;497758;108;379967;-51
2020/12/27 04:23:37;;;;;;;;;10.11;8.89;;;;;1.46;83.13;100630.37;498972;108;372141;-54
2020/12/27 04:24:39;;;;;;;;;11.33;10.33;;;;;1.41;83.14;100627.98;492852;109;369221;-54
2020/12/27 04:25:41;;;;;;;;;14.80;10.70;;;;;1.37;83.36;100630.72;497390;108;374055;-52
2020/12/27 04:26:44;;;;;;;;;11.30;9.90;;;;;1.32;83.80;100620.57;496519;108;369540;-51
2020/12/27 04:27:46;;;;;;;;;17.80;11.40;;;;;1.39;83.93;100628.91;493605;109;376085;-53
2020/12/27 04:28:48;;;;;;;;;15.22;10.67;;;;;1.45;83.72;100621.78;493594;108;371201;-53
2020/12/27 04:29:50;;;;;;;;;12.10;11.80;;;;;1.49;83.53;100627.66;493671;108;372419;-52
2020/12/27 04:30:52;;;;;;;;;10.89;10.00;;;;;1.36;83.67;100624.70;490032;109;371488;-51
2020/12/27 04:31:54;;;;;;;;;15.56;11.89;;;;;1.40;83.91;100621.13;491773;109;371387;-52
2020/12/27 04:32:56;;;;;;;;;15.22;12.00;;;;;1.40;83.91;100621.13;499385;108;367664;-53
2020/12/27 04:33:58;;;;;;;;;16.33;14.33;;;;;1.41;83.64;100627.13;491185;109;377305;-53
2020/12/27 04:35:01;;;;;;;;;20.44;15.67;;;;;1.40;83.62;100628.01;494970;109;378795;-53
2020/12/27 04:36:03;;;;;;;;;15.40;13.50;;;;;1.44;83.62;100630.44;497789;108;367703;-54
2020/12/27 04:37:07;;;;;;;;;16.56;14.11;;;;;1.42;83.50;100633.98;498707;108;366338;-53
2020/12/27 04:38:08;;;;;;;;;16.80;13.40;;;;;1.42;83.50;100633.98;493427;109;379724;-53
2020/12/27 04:39:10;;;;;;;;;8.33;6.78;;;;;1.37;83.71;100631.55;492556;108;363940;-52
2020/12/27 04:40:14;;;;;;;;;19.20;13.00;;;;;1.35;83.83;100641.11;476717;114;374695;-55
2020/12/27 04:41:17;;;;;;;;;13.60;11.30;;;;;1.38;83.76;100634.98;471624;115;368380;-53
2020/12/27 04:42:20;;;;;;;;;19.36;12.91;;;;;1.39;83.89;100637.50;474629;114;376286;-52
2020/12/27 04:43:22;;;;;;;;;11.70;9.80;;;;;1.40;84.07;100638.34;476681;114;372139;-51
2020/12/27 04:44:23;;;;;;;;;14.33;11.67;;;;;1.44;83.83;100643.36;473735;114;375043;-52
2020/12/27 04:45:26;;;;;;;;;9.60;6.30;;;;;1.44;83.65;100638.19;477483;114;370784;-53
2020/12/27 04:46:30;;;;;;;;;16.80;13.50;;;;;1.46;83.64;100635.54;477255;114;374072;-54